Time;durP1;ratioP1;P1;durP2;ratioP2;P2;SDS_P1;SDS_P2;PMS_P1;PMS_P2;Temp;Humidity;BMP_temperature;BMP_pressure;BME280_temperature;BME280_humidity;BME280_pressure;Samples;Min_cycle;Max_cycle;Signal;HPM_P1;HPM_P2
2023/08/12 00:01:40;;;;;;;3.13;1.65;;;23.10;96.70;;;;;;5033266;28;20055;-80
2023/08/12 00:04:06;;;;;;;4.60;1.80;;;23.10;96.70;;;;;;5032416;28;20049;-80
2023/08/12 00:06:31;;;;;;;4.10;1.70;;;23.00;96.70;;;;;;5033448;28;20044;-80
2023/08/12 00:08:57;;;;;;;4.80;1.90;;;23.00;96.70;;;;;;5031849;28;20053;-79
2023/08/12 00:11:23;;;;;;;3.90;2.00;;;23.00;96.80;;;;;;5033204;28;20045;-80
2023/08/12 00:13:48;;;;;;;4.03;1.85;;;22.90;96.70;;;;;;5033059;28;20034;-79
2023/08/12 00:16:14;;;;;;;3.42;1.85;;;22.90;96.70;;;;;;5033252;28;20049;-80
2023/08/12 00:18:40;;;;;;;4.10;1.83;;;22.90;96.70;;;;;;5033386;28;20049;-80
2023/08/12 00:21:08;;;;;;;6.88;2.00;;;22.90;96.80;;;;;;5048670;28;20543;-80
2023/08/12 00:23:38;;;;;;;4.65;2.00;;;22.90;96.80;;;;;;5033228;28;20088;-79
2023/08/12 00:26:04;;;;;;;4.47;1.83;;;22.90;96.80;;;;;;5032880;28;20049;-79
2023/08/12 00:28:29;;;;;;;4.30;1.98;;;22.80;96.80;;;;;;5043972;28;20041;-79
2023/08/12 00:30:55;;;;;;;3.75;1.80;;;22.70;96.80;;;;;;5031522;28;20033;-80
2023/08/12 00:33:20;;;;;;;4.90;2.05;;;22.80;96.90;;;;;;5031375;28;20045;-79
2023/08/12 00:35:46;;;;;;;3.35;1.83;;;22.70;96.90;;;;;;5032670;28;20084;-79
2023/08/12 00:38:12;;;;;;;4.18;2.00;;;22.70;96.90;;;;;;5032504;28;20041;-79
2023/08/12 00:40:37;;;;;;;3.65;1.80;;;22.60;96.90;;;;;;5031430;28;20042;-79
2023/08/12 00:43:03;;;;;;;3.92;2.08;;;22.60;96.90;;;;;;5042698;28;20044;-80
2023/08/12 00:45:29;;;;;;;6.03;2.15;;;22.60;96.90;;;;;;5036530;28;20530;-79
2023/08/12 00:47:55;;;;;;;4.20;2.10;;;22.50;96.90;;;;;;5033004;28;20049;-80
2023/08/12 00:50:21;;;;;;;3.60;2.00;;;22.50;96.90;;;;;;5031729;28;20079;-79
2023/08/12 00:52:48;;;;;;;3.63;1.83;;;22.50;97.00;;;;;;5032821;28;20128;-79
2023/08/12 00:55:14;;;;;;;3.38;1.95;;;22.40;97.00;;;;;;5032146;28;20045;-79
2023/08/12 00:57:40;;;;;;;4.18;2.20;;;22.40;97.00;;;;;;5035642;28;20618;-79
2023/08/12 01:00:06;;;;;;;5.20;2.30;;;22.40;97.00;;;;;;5036195;28;20439;-79
2023/08/12 01:02:32;;;;;;;4.68;2.00;;;22.30;97.00;;;;;;5036819;28;20041;-79
2023/08/12 01:04:58;;;;;;;3.72;2.10;;;22.30;97.00;;;;;;5035897;28;20041;-79
2023/08/12 01:07:24;;;;;;;4.18;2.40;;;22.30;97.00;;;;;;5036792;28;20038;-79
2023/08/12 01:09:50;;;;;;;3.78;2.17;;;22.20;97.00;;;;;;5035787;28;20129;-79
2023/08/12 01:12:21;;;;;;;4.47;2.40;;;22.20;97.10;;;;;;5043594;28;20044;-79
2023/08/12 01:15:23;;;;;;;4.00;2.20;;;22.20;97.10;;;;;;5047324;28;21570;-80
2023/08/12 01:17:52;;;;;;;4.68;2.10;;;22.20;97.10;;;;;;4994971;28;20110;-80
2023/08/12 01:20:24;;;;;;;4.38;2.28;;;22.10;97.10;;;;;;5019411;28;20408;-80
2023/08/12 01:23:16;;;;;;;4.60;2.50;;;22.10;97.10;;;;;;5036535;28;20487;-79
2023/08/12 01:25:42;;;;;;;4.35;2.25;;;22.00;97.10;;;;;;5035527;28;20467;-79
2023/08/12 01:28:09;;;;;;;4.05;2.40;;;22.00;97.10;;;;;;5035073;28;20087;-80
2023/08/12 01:30:43;;;;;;;4.75;2.20;;;22.00;97.20;;;;;;5035508;28;20110;-79
2023/08/12 01:33:21;;;;;;;4.32;2.25;;;21.90;97.20;;;;;;5040168;28;20046;-79
2023/08/12 01:35:54;;;;;;;5.25;2.38;;;21.90;97.10;;;;;;5036093;28;20041;-80
2023/08/12 01:38:22;;;;;;;3.70;2.10;;;21.90;97.20;;;;;;5035261;28;20041;-79
2023/08/12 01:40:49;;;;;;;5.90;2.40;;;21.90;97.30;;;;;;5038073;28;20073;-79
2023/08/12 01:43:15;;;;;;;5.00;2.55;;;21.80;97.30;;;;;;5035438;28;20057;-80
2023/08/12 01:46:01;;;;;;;4.78;2.50;;;21.80;97.70;;;;;;5039471;28;20033;-80
2023/08/12 01:48:27;;;;;;;4.47;2.40;;;21.80;97.10;;;;;;5021114;28;20041;-80
2023/08/12 01:50:52;;;;;;;4.53;2.58;;;21.70;97.40;;;;;;5036097;28;20099;-80
2023/08/12 01:53:18;;;;;;;5.30;2.80;;;21.70;97.40;;;;;;5035705;28;20121;-80
2023/08/12 01:55:44;;;;;;;3.75;2.22;;;21.70;97.50;;;;;;5035004;28;20050;-80
2023/08/12 01:58:10;;;;;;;4.72;2.50;;;21.60;97.50;;;;;;5035774;28;20057;-80
2023/08/12 02:00:36;;;;;;;5.13;2.90;;;21.60;97.60;;;;;;5035947;28;20458;-80
2023/08/12 02:03:02;;;;;;;4.47;2.45;;;21.60;97.70;;;;;;5035521;28;20135;-80
2023/08/12 02:05:28;;;;;;;4.88;2.88;;;21.60;97.70;;;;;;5035751;28;20045;-80
2023/08/12 02:07:54;;;;;;;6.32;2.67;;;21.60;97.70;;;;;;5035083;28;20057;-79
2023/08/12 02:10:19;;;;;;;4.95;2.60;;;21.50;97.70;;;;;;5036340;28;20124;-80
2023/08/12 02:12:45;;;;;;;9.00;2.70;;;21.60;97.70;;;;;;5035835;28;20041;-80
2023/08/12 02:15:11;;;;;;;4.05;2.72;;;21.50;97.70;;;;;;5034857;28;20542;-81
2023/08/12 02:17:36;;;;;;;4.38;2.63;;;21.50;97.80;;;;;;5035494;28;20095;-80
2023/08/12 02:20:03;;;;;;;4.22;2.70;;;21.50;97.80;;;;;;5035133;28;20041;-80
2023/08/12 02:22:29;;;;;;;4.35;2.60;;;21.40;97.70;;;;;;5035585;28;20113;-80
2023/08/12 02:24:55;;;;;;;5.70;2.78;;;21.40;97.60;;;;;;5033824;28;20053;-80
2023/08/12 02:27:21;;;;;;;6.07;3.28;;;21.40;97.70;;;;;;5035140;28;20053;-80
2023/08/12 02:29:46;;;;;;;5.60;2.90;;;21.40;97.80;;;;;;5035594;28;20049;-80
2023/08/12 02:32:12;;;;;;;6.05;2.97;;;21.30;97.80;;;;;;5034609;28;20049;-80
2023/08/12 02:34:38;;;;;;;4.63;3.00;;;21.30;97.80;;;;;;5033746;28;20192;-80
2023/08/12 02:37:03;;;;;;;4.90;3.33;;;21.30;97.80;;;;;;5034772;28;20053;-80
2023/08/12 02:39:29;;;;;;;5.32;2.92;;;21.30;97.90;;;;;;5033625;28;20049;-80
2023/08/12 02:41:54;;;;;;;4.40;2.70;;;21.30;97.90;;;;;;5032540;28;20451;-79
2023/08/12 02:44:20;;;;;;;6.00;3.47;;;21.20;97.90;;;;;;5034166;28;20034;-80
2023/08/12 02:46:46;;;;;;;5.60;3.45;;;21.20;97.90;;;;;;5034220;28;20041;-80
2023/08/12 02:49:11;;;;;;;5.75;3.25;;;21.20;97.90;;;;;;5033798;28;20510;-80
2023/08/12 02:51:37;;;;;;;4.93;3.10;;;21.20;97.90;;;;;;5034341;28;20476;-80
2023/08/12 02:54:03;;;;;;;6.60;3.65;;;21.20;97.90;;;;;;5032825;28;20046;-80
2023/08/12 02:56:28;;;;;;;5.22;3.40;;;21.10;97.80;;;;;;5033819;28;20491;-79
2023/08/12 02:58:54;;;;;;;5.95;3.88;;;21.10;97.90;;;;;;5033798;28;20052;-80
2023/08/12 03:01:21;;;;;;;5.82;3.38;;;21.10;97.90;;;;;;5032646;28;20088;-80
2023/08/12 03:03:46;;;;;;;7.10;3.60;;;21.10;98.00;;;;;;5033886;28;20041;-80
2023/08/12 03:06:12;;;;;;;5.78;3.83;;;21.00;97.90;;;;;;5034100;28;20505;-80
2023/08/12 03:08:38;;;;;;;5.10;3.60;;;21.00;97.90;;;;;;5033974;28;20068;-80
2023/08/12 03:11:03;;;;;;;5.97;3.70;;;21.00;97.90;;;;;;5034562;28;20041;-80
2023/08/12 03:13:30;;;;;;;6.57;3.83;;;21.00;98.30;;;;;;5033585;28;20144;-80
2023/08/12 03:15:56;;;;;;;6.30;3.90;;;21.00;97.90;;;;;;5034100;28;20049;-80
2023/08/12 03:18:21;;;;;;;5.75;3.80;;;21.00;98.00;;;;;;5034212;28;20042;-79
2023/08/12 03:20:47;;;;;;;6.30;4.10;;;20.90;97.90;;;;;;5035857;28;20038;-80
2023/08/12 03:23:13;;;;;;;5.95;3.78;;;20.90;98.00;;;;;;5033859;28;20121;-80
2023/08/12 03:25:38;;;;;;;6.38;4.20;;;20.90;98.00;;;;;;5033979;28;20049;-80
2023/08/12 03:28:04;;;;;;;7.45;4.03;;;20.90;98.00;;;;;;5033764;28;20128;-79
2023/08/12 03:30:30;;;;;;;5.60;3.85;;;20.80;98.00;;;;;;5031957;28;20080;-80
2023/08/12 03:32:55;;;;;;;6.47;4.43;;;20.80;98.00;;;;;;5032201;28;20038;-80
2023/08/12 03:35:21;;;;;;;5.05;3.45;;;20.80;98.00;;;;;;5034025;28;20120;-80
2023/08/12 03:37:47;;;;;;;6.22;4.28;;;20.80;98.00;;;;;;5040607;28;20049;-80
2023/08/12 03:40:12;;;;;;;6.60;4.22;;;20.80;98.00;;;;;;5014287;28;20038;-80
2023/08/12 03:42:38;;;;;;;6.22;4.45;;;20.80;97.90;;;;;;5033382;28;20053;-80
2023/08/12 03:45:04;;;;;;;6.03;4.20;;;20.80;97.80;;;;;;5037258;28;20034;-80
2023/08/12 03:47:30;;;;;;;8.48;4.93;;;20.80;97.90;;;;;;5031004;28;20056;-80
2023/08/12 03:49:56;;;;;;;5.47;3.97;;;20.70;98.00;;;;;;5033330;28;20045;-80
2023/08/12 03:52:22;;;;;;;6.78;4.80;;;20.70;98.00;;;;;;5036890;28;20037;-80
2023/08/12 03:54:47;;;;;;;10.23;6.65;;;20.70;98.10;;;;;;5033080;28;20054;-80
2023/08/12 03:57:13;;;;;;;8.38;4.40;;;20.70;98.30;;;;;;5033650;28;20107;-80
2023/08/12 03:59:39;;;;;;;7.57;4.85;;;20.70;98.20;;;;;;5033300;28;20140;-80
2023/08/12 04:02:04;;;;;;;7.20;4.93;;;20.70;98.10;;;;;;5033043;28;20568;-80
2023/08/12 04:04:30;;;;;;;9.32;5.50;;;20.70;98.00;;;;;;5033273;28;20450;-80
2023/08/12 04:06:55;;;;;;;7.85;4.47;;;20.70;98.20;;;;;;5046661;28;20111;-80
2023/08/12 04:09:21;;;;;;;6.65;4.25;;;20.60;98.10;;;;;;5033083;28;20046;-81
2023/08/12 04:11:47;;;;;;;7.63;4.18;;;20.60;98.40;;;;;;5032363;28;20057;-80
2023/08/12 04:14:13;;;;;;;6.38;4.20;;;20.60;98.00;;;;;;5033138;28;20041;-79
2023/08/12 04:16:40;;;;;;;6.30;4.25;;;20.50;97.90;;;;;;5031731;28;20053;-80
2023/08/12 04:19:05;;;;;;;6.45;4.40;;;20.50;97.90;;;;;;5031971;28;20056;-79
2023/08/12 04:21:31;;;;;;;6.25;4.32;;;20.50;98.10;;;;;;5032910;28;20042;-80
2023/08/12 04:23:56;;;;;;;5.95;4.45;;;20.50;98.00;;;;;;5032785;28;20041;-80
2023/08/12 04:26:22;;;;;;;5.80;4.18;;;20.50;97.80;;;;;;5031997;28;20045;-80
2023/08/12 04:28:48;;;;;;;7.78;4.85;;;20.50;97.80;;;;;;5033188;28;20495;-79
2023/08/12 04:31:14;;;;;;;8.40;5.10;;;20.50;97.90;;;;;;5031449;28;20041;-80
2023/08/12 04:33:39;;;;;;;8.20;5.35;;;20.50;97.80;;;;;;5033164;28;20061;-80
2023/08/12 04:36:05;;;;;;;5.82;4.15;;;20.50;97.80;;;;;;5032575;28;20048;-80
2023/08/12 04:38:31;;;;;;;6.50;4.13;;;20.40;97.80;;;;;;5032773;28;20045;-80
2023/08/12 04:40:57;;;;;;;5.65;4.10;;;20.40;97.60;;;;;;5031619;28;20080;-80
2023/08/12 04:43:22;;;;;;;8.77;4.80;;;20.40;97.80;;;;;;5032945;28;20049;-80
2023/08/12 04:45:48;;;;;;;7.13;4.63;;;20.40;97.60;;;;;;5032229;28;20183;-80
2023/08/12 04:48:14;;;;;;;8.15;4.60;;;20.40;97.80;;;;;;5031765;28;20572;-80
2023/08/12 04:50:41;;;;;;;6.22;4.00;;;20.40;97.50;;;;;;5036149;28;20064;-80
2023/08/12 04:53:07;;;;;;;6.40;4.45;;;20.40;97.30;;;;;;5032759;28;20176;-79
2023/08/12 04:55:34;;;;;;;7.93;4.60;;;20.40;97.40;;;;;;5032686;28;20128;-80
2023/08/12 04:58:01;;;;;;;6.75;4.40;;;20.40;97.60;;;;;;5031164;28;20141;-80
2023/08/12 05:00:27;;;;;;;7.55;4.22;;;20.40;97.70;;;;;;5032550;28;20049;-80
2023/08/12 05:02:53;;;;;;;8.60;5.00;;;20.40;97.60;;;;;;5032816;28;20067;-80
2023/08/12 05:05:19;;;;;;;7.43;4.30;;;20.40;97.40;;;;;;5032549;28;20085;-80
2023/08/12 05:07:48;;;;;;;6.22;4.15;;;20.40;97.70;;;;;;5032914;28;20044;-80
2023/08/12 05:10:17;;;;;;;6.65;4.50;;;20.40;97.50;;;;;;5030875;28;20422;-80
2023/08/12 05:12:44;;;;;;;6.38;4.32;;;20.40;97.40;;;;;;5032077;28;20072;-80
2023/08/12 05:15:11;;;;;;;7.57;4.60;;;20.40;97.70;;;;;;5032293;28;20051;-79
2023/08/12 05:17:37;;;;;;;7.60;4.80;;;20.40;97.60;;;;;;5031887;28;20049;-79
2023/08/12 05:20:03;;;;;;;7.28;5.00;;;20.40;97.70;;;;;;5042252;28;20079;-79
2023/08/12 05:22:29;;;;;;;10.30;6.85;;;20.40;98.00;;;;;;5037735;28;20045;-80
2023/08/12 05:24:55;;;;;;;8.15;5.25;;;20.40;98.60;;;;;;5032547;28;20095;-80
2023/08/12 05:27:20;;;;;;;6.80;4.40;;;20.40;98.60;;;;;;5032627;28;20041;-80
2023/08/12 05:29:46;;;;;;;8.88;6.53;;;20.40;98.40;;;;;;5032580;28;20045;-80
2023/08/12 05:32:11;;;;;;;6.22;4.55;;;20.40;98.70;;;;;;5035093;28;20060;-80
2023/08/12 05:34:37;;;;;;;10.82;6.28;;;20.40;98.50;;;;;;5052262;28;20037;-80
2023/08/12 05:37:03;;;;;;;13.40;7.72;;;20.40;98.70;;;;;;5051383;28;20037;-80
2023/08/12 05:39:28;;;;;;;8.70;5.22;;;20.40;99.30;;;;;;5052400;28;20045;-80
2023/08/12 05:41:54;;;;;;;8.55;5.32;;;20.40;98.90;;;;;;5036739;28;20041;-80
2023/08/12 05:44:20;;;;;;;9.30;6.75;;;20.40;99.10;;;;;;5035903;28;20050;-81
2023/08/12 05:46:45;;;;;;;7.70;4.75;;;20.50;99.30;;;;;;5035801;28;20034;-81
2023/08/12 05:49:11;;;;;;;9.77;6.97;;;20.40;99.10;;;;;;5036296;28;20049;-81
2023/08/12 05:51:38;;;;;;;8.45;5.32;;;20.50;99.50;;;;;;5035477;28;20467;-78
2023/08/12 05:54:04;;;;;;;9.05;5.78;;;20.50;99.40;;;;;;5036774;28;20049;-80
2023/08/12 05:56:30;;;;;;;13.38;8.90;;;20.50;99.30;;;;;;5034855;28;20053;-80
2023/08/12 05:58:55;;;;;;;13.32;9.80;;;20.50;99.90;;;;;;5035899;28;20061;-80
2023/08/12 06:01:21;;;;;;;14.38;9.68;;;20.50;99.90;;;;;;5035293;28;20085;-80
2023/08/12 06:03:47;;;;;;;18.40;10.82;;;20.60;99.90;;;;;;5049843;28;20127;-80
2023/08/12 06:06:12;;;;;;;20.48;11.50;;;20.60;99.90;;;;;;5044948;28;20116;-80
2023/08/12 06:08:38;;;;;;;13.75;8.85;;;20.60;99.90;;;;;;5035724;28;20068;-80
2023/08/12 06:11:03;;;;;;;15.32;10.98;;;20.70;99.90;;;;;;5035643;28;20052;-80
2023/08/12 06:13:29;;;;;;;14.43;8.30;;;20.70;99.90;;;;;;5035051;28;20106;-80
2023/08/12 06:15:55;;;;;;;16.73;10.05;;;20.70;99.90;;;;;;5035302;28;20041;-80
2023/08/12 06:18:20;;;;;;;20.27;12.18;;;20.70;99.90;;;;;;5035557;28;20491;-80
2023/08/12 06:20:46;;;;;;;20.38;12.52;;;20.70;99.90;;;;;;5035461;28;20044;-80
2023/08/12 06:23:12;;;;;;;12.68;8.20;;;20.80;99.90;;;;;;5034808;28;20160;-80
2023/08/12 06:25:38;;;;;;;11.90;8.32;;;20.80;99.90;;;;;;5039126;28;20077;-80
2023/08/12 06:28:08;;;;;;;18.10;11.55;;;20.80;99.90;;;;;;5034688;28;20136;-80
2023/08/12 06:30:35;;;;;;;14.82;9.48;;;20.80;99.90;;;;;;5034476;28;20494;-80
2023/08/12 06:33:01;;;;;;;19.58;12.27;;;20.80;99.90;;;;;;5034830;28;20057;-81
2023/08/12 06:35:30;;;;;;;16.90;11.30;;;20.80;99.90;;;;;;5037053;28;20133;-79
2023/08/12 06:37:55;;;;;;;21.30;13.98;;;20.90;99.90;;;;;;5037310;28;20419;-80
2023/08/12 06:40:21;;;;;;;21.30;13.02;;;20.90;99.90;;;;;;5052916;28;20040;-80
2023/08/12 06:42:47;;;;;;;22.10;14.02;;;20.90;99.90;;;;;;5034642;28;20045;-80
2023/08/12 06:45:13;;;;;;;19.50;13.00;;;20.90;99.90;;;;;;5042719;28;20033;-80
2023/08/12 06:47:38;;;;;;;18.00;13.10;;;20.90;99.90;;;;;;5021356;28;20041;-80
2023/08/12 06:50:05;;;;;;;15.13;9.43;;;20.90;99.90;;;;;;5033369;28;20391;-80
2023/08/12 06:52:31;;;;;;;16.33;10.80;;;20.90;99.90;;;;;;5033650;28;20049;-80
2023/08/12 06:54:56;;;;;;;20.88;13.80;;;20.90;99.90;;;;;;5033614;28;20048;-80
2023/08/12 06:57:23;;;;;;;19.92;13.20;;;21.00;99.90;;;;;;5034496;28;20131;-80
2023/08/12 06:59:49;;;;;;;14.90;9.70;;;21.00;99.90;;;;;;5034653;28;20045;-80
2023/08/12 07:02:14;;;;;;;17.13;11.32;;;21.00;99.90;;;;;;5034999;28;20498;-80
2023/08/12 07:04:40;;;;;;;19.10;12.55;;;21.00;99.90;;;;;;5034439;28;20116;-80
2023/08/12 07:07:05;;;;;;;16.42;10.73;;;21.00;99.90;;;;;;5038158;28;20052;-80
2023/08/12 07:09:31;;;;;;;18.50;11.52;;;21.00;99.90;;;;;;5034294;28;20392;-79
2023/08/12 07:12:01;;;;;;;19.60;13.38;;;21.00;99.90;;;;;;5033986;28;20049;-80
2023/08/12 07:14:28;;;;;;;18.40;11.27;;;21.10;99.90;;;;;;5039206;28;20115;-80
2023/08/12 07:16:53;;;;;;;17.88;11.30;;;21.10;99.90;;;;;;5049432;28;20056;-80
2023/08/12 07:19:19;;;;;;;13.57;9.20;;;21.10;99.90;;;;;;5034353;28;20037;-80
2023/08/12 07:21:45;;;;;;;13.07;9.15;;;21.10;99.90;;;;;;5037075;28;20049;-81
2023/08/12 07:24:10;;;;;;;11.45;7.90;;;21.10;99.90;;;;;;5035188;28;20057;-81
2023/08/12 07:26:36;;;;;;;16.70;10.90;;;21.10;99.90;;;;;;5036368;28;20119;-81
2023/08/12 07:29:02;;;;;;;15.02;9.18;;;21.10;99.90;;;;;;5037267;28;20523;-80
2023/08/12 07:31:27;;;;;;;14.35;10.82;;;21.10;99.90;;;;;;5040302;28;20483;-80
2023/08/12 07:33:53;;;;;;;14.80;10.55;;;21.10;99.90;;;;;;5038712;28;20494;-81
2023/08/12 07:36:18;;;;;;;13.65;9.38;;;21.10;99.90;;;;;;5039141;28;20510;-81
2023/08/12 07:38:44;;;;;;;20.50;12.95;;;21.10;99.90;;;;;;5046666;28;20037;-81
2023/08/12 07:41:09;;;;;;;19.73;13.07;;;21.10;99.90;;;;;;5033313;28;20099;-81
2023/08/12 07:43:35;;;;;;;14.63;9.93;;;21.10;99.90;;;;;;5032412;28;20482;-80
2023/08/12 07:46:01;;;;;;;16.58;10.85;;;21.20;99.90;;;;;;5033036;28;20037;-81
2023/08/12 07:48:26;;;;;;;18.48;13.45;;;21.20;99.90;;;;;;5033908;28;20056;-81
2023/08/12 07:50:57;;;;;;;14.50;10.02;;;21.20;99.90;;;;;;5063042;28;20087;-80
2023/08/12 07:53:23;;;;;;;16.08;10.52;;;21.20;99.90;;;;;;5052131;28;20053;-81
2023/08/12 07:55:49;;;;;;;15.63;11.68;;;21.20;99.90;;;;;;5052604;28;20045;-81
2023/08/12 07:58:14;;;;;;;18.52;13.73;;;21.30;99.90;;;;;;5053874;28;20115;-81
2023/08/12 08:00:40;;;;;;;21.92;14.88;;;21.30;99.90;;;;;;5053777;28;20060;-81
2023/08/12 08:03:06;;;;;;;16.65;11.00;;;21.30;99.90;;;;;;5053677;28;20033;-81
2023/08/12 08:05:32;;;;;;;20.98;13.52;;;21.30;99.90;;;;;;5053770;28;20425;-81
2023/08/12 08:07:57;;;;;;;21.35;15.43;;;21.30;99.90;;;;;;5053701;28;20120;-81
2023/08/12 08:10:23;;;;;;;16.63;11.15;;;21.40;99.90;;;;;;5052318;28;20434;-81
2023/08/12 08:12:49;;;;;;;20.20;13.50;;;21.40;99.90;;;;;;5053494;28;20052;-81
2023/08/12 08:15:14;;;;;;;18.40;14.48;;;21.40;99.90;;;;;;5053619;28;20179;-81
2023/08/12 08:17:40;;;;;;;21.63;13.63;;;21.40;99.90;;;;;;5053327;28;20065;-81
2023/08/12 08:20:07;;;;;;;19.77;13.30;;;21.40;99.90;;;;;;5053551;28;20120;-81
2023/08/12 08:22:32;;;;;;;23.42;14.43;;;21.40;99.90;;;;;;5053535;28;20418;-81
2023/08/12 08:24:58;;;;;;;20.80;14.75;;;21.40;99.90;;;;;;5053371;28;20048;-81
2023/08/12 08:27:24;;;;;;;19.83;14.15;;;21.50;99.90;;;;;;5053176;28;20076;-81
2023/08/12 08:29:50;;;;;;;20.85;14.73;;;21.50;99.90;;;;;;5045892;28;20502;-81
2023/08/12 08:32:16;;;;;;;21.92;15.32;;;21.50;99.90;;;;;;5033411;28;20053;-81
2023/08/12 08:34:42;;;;;;;23.27;16.45;;;21.50;99.90;;;;;;5033402;28;20059;-81
2023/08/12 08:37:08;;;;;;;25.05;15.90;;;21.50;99.90;;;;;;5033373;28;20073;-81
2023/08/12 08:39:33;;;;;;;18.70;13.82;;;21.50;99.90;;;;;;5033207;28;20081;-82
2023/08/12 08:42:00;;;;;;;18.65;13.93;;;21.50;99.90;;;;;;5032991;28;20489;-81
2023/08/12 08:44:30;;;;;;;15.90;10.63;;;21.50;99.90;;;;;;5033439;28;20049;-82
2023/08/12 08:46:57;;;;;;;14.55;10.18;;;21.50;99.90;;;;;;5033056;28;20446;-81
2023/08/12 08:49:23;;;;;;;19.90;14.73;;;21.40;99.90;;;;;;5033223;28;20085;-81
2023/08/12 08:51:50;;;;;;;21.15;14.25;;;21.50;99.90;;;;;;5033060;28;20051;-81
2023/08/12 08:54:17;;;;;;;18.65;13.13;;;21.40;99.90;;;;;;5033042;28;20085;-81
2023/08/12 08:56:42;;;;;;;18.00;14.32;;;21.50;99.90;;;;;;5032991;28;20084;-77
2023/08/12 08:59:09;;;;;;;13.45;9.23;;;21.40;99.90;;;;;;5031708;28;20049;-81
2023/08/12 09:01:36;;;;;;;12.32;9.00;;;21.40;99.90;;;;;;5032853;28;20053;-81
2023/08/12 09:04:03;;;;;;;11.98;9.30;;;21.40;99.90;;;;;;5033095;28;20048;-80
2023/08/12 09:06:30;;;;;;;16.38;13.05;;;21.40;99.90;;;;;;5033076;28;20452;-80
2023/08/12 09:08:56;;;;;;;16.40;12.13;;;21.40;99.90;;;;;;5032923;28;20057;-80
2023/08/12 09:11:23;;;;;;;14.30;10.05;;;21.40;99.90;;;;;;5033035;28;20046;-80
2023/08/12 09:13:49;;;;;;;15.70;12.60;;;21.40;99.90;;;;;;5031928;28;20053;-80
2023/08/12 09:16:15;;;;;;;14.20;11.65;;;21.40;99.90;;;;;;5032786;28;20038;-80
2023/08/12 09:18:44;;;;;;;12.30;9.10;;;21.40;99.90;;;;;;5035517;28;20056;-80
2023/08/12 09:21:11;;;;;;;12.60;9.98;;;21.40;99.90;;;;;;5036547;28;20078;-80
2023/08/12 09:23:41;;;;;;;10.77;8.45;;;21.30;99.90;;;;;;5036589;28;20057;-80
2023/08/12 09:26:18;;;;;;;9.48;7.68;;;21.40;99.90;;;;;;5036634;28;20045;-80
2023/08/12 09:28:43;;;;;;;11.52;8.45;;;21.30;99.90;;;;;;5036757;28;20056;-80
2023/08/12 09:31:29;;;;;;;12.15;7.90;;;21.30;99.90;;;;;;5036613;28;20038;-80
2023/08/12 09:34:06;;;;;;;10.88;7.70;;;21.30;99.90;;;;;;5036404;28;20129;-80
2023/08/12 09:36:33;;;;;;;9.10;6.53;;;21.30;99.90;;;;;;5036441;28;20078;-80
2023/08/12 09:38:58;;;;;;;9.52;7.05;;;21.30;99.90;;;;;;5036259;28;20491;-80
2023/08/12 09:41:30;;;;;;;10.38;6.25;;;21.30;99.90;;;;;;5035100;28;20080;-80
2023/08/12 09:43:57;;;;;;;7.80;5.07;;;21.30;99.90;;;;;;5036406;28;20053;-80
2023/08/12 09:46:23;;;;;;;8.50;7.05;;;21.30;99.90;;;;;;5034917;28;20557;-80
2023/08/12 09:48:52;;;;;;;9.52;6.38;;;21.30;99.90;;;;;;5035188;28;20041;-80
2023/08/12 09:51:19;;;;;;;8.73;4.57;;;21.20;99.90;;;;;;5036191;28;20081;-80
2023/08/12 09:53:47;;;;;;;7.47;4.68;;;21.20;99.90;;;;;;5035226;28;20053;-80
2023/08/12 09:56:16;;;;;;;9.25;5.28;;;21.20;99.90;;;;;;5034777;28;20038;-79
2023/08/12 09:58:43;;;;;;;7.47;5.38;;;21.20;99.90;;;;;;5035509;28;20060;-80
2023/08/12 10:01:10;;;;;;;8.15;5.47;;;21.20;99.90;;;;;;5035708;28;20046;-80
2023/08/12 10:03:36;;;;;;;8.35;4.15;;;21.20;99.90;;;;;;5035965;28;20488;-80
2023/08/12 10:06:03;;;;;;;7.82;5.28;;;21.10;99.90;;;;;;5035851;28;20045;-80
2023/08/12 10:08:29;;;;;;;7.20;5.47;;;21.10;99.90;;;;;;5035772;28;20045;-80
2023/08/12 10:10:55;;;;;;;7.82;5.53;;;21.10;99.90;;;;;;5034792;28;20052;-80
2023/08/12 10:13:22;;;;;;;14.20;5.28;;;21.10;99.90;;;;;;5035676;28;20037;-80
2023/08/12 10:15:49;;;;;;;7.85;5.07;;;21.10;99.90;;;;;;5035511;28;20052;-80
2023/08/12 10:18:15;;;;;;;8.18;5.65;;;21.10;99.90;;;;;;5034446;28;20057;-80
2023/08/12 10:20:41;;;;;;;6.40;4.97;;;21.10;99.90;;;;;;5035752;28;20046;-80
2023/08/12 10:23:10;;;;;;;7.82;5.18;;;21.10;99.90;;;;;;5035535;28;20514;-80
2023/08/12 10:25:37;;;;;;;5.72;3.25;;;21.10;99.90;;;;;;5035331;28;20053;-80
2023/08/12 10:28:03;;;;;;;10.82;5.35;;;21.10;99.90;;;;;;5035223;28;20128;-80
2023/08/12 10:30:31;;;;;;;7.93;4.72;;;21.00;99.90;;;;;;5035535;28;20133;-80
2023/08/12 10:32:59;;;;;;;7.25;2.95;;;21.10;99.90;;;;;;5035455;28;20041;-80
2023/08/12 10:35:40;;;;;;;6.18;3.58;;;21.10;99.90;;;;;;5034348;28;20128;-80
2023/08/12 10:38:06;;;;;;;7.88;4.07;;;21.10;99.90;;;;;;5035229;28;20090;-80
2023/08/12 10:40:32;;;;;;;6.82;3.33;;;21.10;99.90;;;;;;5035099;28;20049;-80
2023/08/12 10:42:57;;;;;;;6.18;3.47;;;21.10;99.90;;;;;;5034931;28;20531;-80
2023/08/12 10:45:46;;;;;;;6.13;2.80;;;21.20;99.90;;;;;;5035151;28;20053;-80
2023/08/12 10:48:22;;;;;;;4.05;2.15;;;21.20;99.90;;;;;;5035110;28;20492;-80
2023/08/12 10:50:57;;;;;;;6.32;3.03;;;21.20;99.90;;;;;;5035017;28;20132;-80
2023/08/12 10:53:30;;;;;;;4.07;2.30;;;21.20;99.90;;;;;;5033710;28;20042;-80
2023/08/12 10:55:57;;;;;;;;;;;21.20;99.90;;;;;;5035491;28;20092;-80
2023/08/12 10:58:34;;;;;;;5.22;2.60;;;21.10;99.90;;;;;;5034600;28;19921;-80
2023/08/12 11:01:00;;;;;;;3.35;1.60;;;21.10;99.90;;;;;;5034822;28;20132;-80
2023/08/12 11:03:26;;;;;;;2.53;1.17;;;21.10;99.90;;;;;;5034675;28;20137;-80
2023/08/12 11:05:55;;;;;;;3.38;1.52;;;21.20;99.90;;;;;;5034842;28;20463;-80
2023/08/12 11:08:26;;;;;;;5.32;2.42;;;21.10;99.90;;;;;;5034746;28;20045;-80
2023/08/12 11:10:54;;;;;;;5.43;2.95;;;21.10;99.90;;;;;;5035023;28;20045;-80
2023/08/12 11:13:20;;;;;;;3.83;1.88;;;21.20;99.90;;;;;;5034572;28;20045;-80
2023/08/12 11:15:49;;;;;;;5.28;2.92;;;21.20;99.90;;;;;;5034505;28;20043;-80
2023/08/12 11:18:18;;;;;;;3.42;1.10;;;21.10;99.90;;;;;;5033098;28;20041;-80
2023/08/12 11:20:46;;;;;;;3.80;1.65;;;21.20;99.90;;;;;;5034428;28;20053;-80
2023/08/12 11:23:12;;;;;;;4.53;2.42;;;21.20;99.90;;;;;;5034442;28;20055;-80
2023/08/12 11:25:39;;;;;;;4.15;2.33;;;21.20;99.90;;;;;;5034387;28;20065;-80
2023/08/12 11:28:06;;;;;;;4.57;2.42;;;21.20;99.90;;;;;;5034132;28;20037;-80
2023/08/12 11:30:32;;;;;;;4.03;2.20;;;21.20;99.90;;;;;;5034117;28;20053;-79
2023/08/12 11:32:59;;;;;;;5.13;1.50;;;21.20;99.90;;;;;;5034084;28;20502;-80
2023/08/12 11:35:24;;;;;;;4.28;2.25;;;21.20;99.90;;;;;;5034305;28;20048;-80
2023/08/12 11:37:58;;;;;;;3.03;1.65;;;21.20;99.90;;;;;;5034767;28;20403;-80
2023/08/12 11:40:25;;;;;;;3.33;1.55;;;21.30;99.90;;;;;;5035231;28;20045;-79
2023/08/12 11:42:52;;;;;;;3.47;1.88;;;21.30;99.90;;;;;;5035147;28;20514;-80
2023/08/12 11:45:19;;;;;;;3.53;1.60;;;21.30;99.90;;;;;;5035556;28;20049;-80
2023/08/12 11:47:47;;;;;;;2.75;1.60;;;21.40;99.90;;;;;;5035577;28;20052;-80
2023/08/12 11:50:13;;;;;;;3.55;1.33;;;21.40;99.90;;;;;;5036000;28;20507;-80
2023/08/12 11:52:40;;;;;;;4.47;1.63;;;21.40;99.90;;;;;;5036126;28;20041;-80
2023/08/12 11:55:06;;;;;;;3.90;1.70;;;21.40;99.90;;;;;;5036185;28;20506;-80
2023/08/12 11:57:36;;;;;;;5.25;1.88;;;21.40;99.90;;;;;;5033765;28;20068;-80
2023/08/12 12:00:13;;;;;;;3.63;1.80;;;21.30;99.90;;;;;;5033787;28;20084;-81
2023/08/12 12:02:45;;;;;;;4.15;2.08;;;21.20;99.90;;;;;;5034503;28;20081;-81
2023/08/12 12:05:12;;;;;;;5.50;1.90;;;21.10;99.90;;;;;;5034034;28;20049;-80
2023/08/12 12:07:38;;;;;;;7.88;2.20;;;21.00;99.90;;;;;;5033764;28;20451;-79
2023/08/12 12:10:05;;;;;;;4.53;2.08;;;21.00;99.90;;;;;;5033999;28;20048;-80
2023/08/12 12:12:36;;;;;;;6.15;1.90;;;21.00;99.90;;;;;;5033478;28;20045;-81
2023/08/12 12:15:02;;;;;;;5.28;2.20;;;21.00;99.90;;;;;;5033424;28;20484;-81
2023/08/12 12:17:28;;;;;;;4.60;2.10;;;21.00;99.90;;;;;;5033509;28;20077;-81
2023/08/12 12:19:58;;;;;;;5.90;2.10;;;21.00;99.90;;;;;;5033541;28;20088;-81
2023/08/12 12:22:32;;;;;;;5.32;1.92;;;21.00;99.90;;;;;;5033412;28;20049;-81
2023/08/12 12:25:12;;;;;;;3.88;1.80;;;21.00;99.90;;;;;;5033323;28;20052;-80
2023/08/12 12:27:39;;;;;;;7.07;2.03;;;21.00;99.90;;;;;;5033258;28;20038;-80
2023/08/12 12:30:09;;;;;;;5.68;1.60;;;21.00;99.90;;;;;;5033383;28;20132;-80
2023/08/12 12:32:35;;;;;;;4.75;1.80;;;21.00;99.90;;;;;;5033353;28;20123;-81
2023/08/12 12:35:00;;;;;;;9.38;2.28;;;21.00;99.90;;;;;;5033130;28;20555;-81
2023/08/12 12:37:27;;;;;;;6.18;2.03;;;21.00;99.90;;;;;;5033134;28;20076;-81
2023/08/12 12:39:52;;;;;;;5.97;1.90;;;21.00;99.90;;;;;;5033341;28;20132;-81
2023/08/12 12:42:18;;;;;;;5.75;2.00;;;21.00;99.90;;;;;;5033254;28;20125;-81